createdAt,value
2022-07-26T00:02:05.434Z,21.11
2022-07-26T00:04:33.440Z,21.07
2022-07-26T00:07:01.604Z,21.06
2022-07-26T00:09:29.472Z,21.05
2022-07-26T00:11:58.638Z,21.04
2022-07-26T00:14:26.680Z,21.02
2022-07-26T00:16:54.661Z,21.01
2022-07-26T00:19:22.771Z,21.02
2022-07-26T00:22:11.078Z,20.98
2022-07-26T00:24:39.576Z,20.93
2022-07-26T00:27:09.188Z,20.92
2022-07-26T00:29:37.050Z,20.90
2022-07-26T00:32:05.358Z,20.86
2022-07-26T00:34:33.189Z,20.82
2022-07-26T00:37:01.041Z,20.72
2022-07-26T00:39:29.004Z,20.62
2022-07-26T00:41:56.875Z,20.57
2022-07-26T00:44:26.185Z,20.54
2022-07-26T00:46:54.100Z,20.51
2022-07-26T00:49:22.061Z,20.49
2022-07-26T00:51:49.877Z,20.48
2022-07-26T00:54:18.199Z,20.49
2022-07-26T00:56:48.324Z,20.48
2022-07-26T00:59:18.748Z,20.48
2022-07-26T01:01:48.066Z,20.48
2022-07-26T01:04:16.363Z,20.47
2022-07-26T01:06:44.307Z,20.47
2022-07-26T01:09:12.922Z,20.48
2022-07-26T01:11:40.771Z,20.45
2022-07-26T01:14:09.141Z,20.44
2022-07-26T01:16:37.277Z,20.42
2022-07-26T01:19:06.702Z,20.37
2022-07-26T01:21:35.944Z,20.32
2022-07-26T01:24:03.948Z,20.27
2022-07-26T01:26:31.844Z,20.23
2022-07-26T01:28:59.730Z,20.18
2022-07-26T01:31:27.826Z,20.15
2022-07-26T01:33:55.737Z,20.13
2022-07-26T01:36:23.691Z,20.09
2022-07-26T01:38:52.874Z,20.07
2022-07-26T01:41:21.399Z,20.02
2022-07-26T01:44:07.746Z,19.98
2022-07-26T01:46:36.249Z,19.93
2022-07-26T01:49:04.816Z,19.92
2022-07-26T01:51:32.810Z,19.87
2022-07-26T01:54:02.125Z,19.82
2022-07-26T01:56:30.215Z,19.77
2022-07-26T01:58:58.175Z,19.71
2022-07-26T02:01:38.367Z,19.68
2022-07-26T02:04:09.004Z,19.62
2022-07-26T02:06:37.552Z,19.59
2022-07-26T02:09:07.631Z,19.54
2022-07-26T02:11:38.505Z,19.49
2022-07-26T02:14:06.538Z,19.43
2022-07-26T02:16:34.591Z,19.40
2022-07-26T02:19:02.436Z,19.36
2022-07-26T02:21:30.229Z,19.33
2022-07-26T02:23:58.172Z,19.29
2022-07-26T02:26:27.381Z,19.26
2022-07-26T02:28:55.197Z,19.22
2022-07-26T02:31:23.084Z,19.18
2022-07-26T02:34:00.083Z,19.15
2022-07-26T02:36:28.082Z,19.11
2022-07-26T02:38:56.062Z,19.06
2022-07-26T02:41:24.111Z,19.03
2022-07-26T02:43:53.274Z,18.99
2022-07-26T02:46:21.169Z,18.96
2022-07-26T02:48:49.105Z,18.92
2022-07-26T02:51:17.986Z,18.86
2022-07-26T02:53:45.848Z,18.82
2022-07-26T02:56:13.915Z,18.77
2022-07-26T02:58:41.792Z,18.72
2022-07-26T03:01:11.215Z,18.67
2022-07-26T03:03:41.131Z,18.65
2022-07-26T03:06:09.489Z,18.62
2022-07-26T03:08:37.314Z,18.58
2022-07-26T03:11:08.985Z,18.55
2022-07-26T03:13:39.626Z,18.50
2022-07-26T03:16:08.913Z,18.46
2022-07-26T03:18:39.036Z,18.44
2022-07-26T03:21:07.511Z,18.41
2022-07-26T03:23:35.602Z,18.39
2022-07-26T03:26:03.973Z,18.35
2022-07-26T03:28:32.634Z,18.31
2022-07-26T03:31:01.138Z,18.28
2022-07-26T03:33:30.301Z,18.24
2022-07-26T03:35:59.505Z,18.21
2022-07-26T03:38:28.697Z,18.19
2022-07-26T03:40:56.538Z,18.16
2022-07-26T03:43:24.396Z,18.15
2022-07-26T03:45:54.618Z,18.14
2022-07-26T03:48:23.062Z,18.13
2022-07-26T03:50:51.004Z,18.13
2022-07-26T03:53:20.193Z,18.12
2022-07-26T03:56:05.854Z,18.13
2022-07-26T03:58:33.695Z,18.12
2022-07-26T04:01:01.578Z,18.14
2022-07-26T04:03:29.428Z,18.16
2022-07-26T04:05:58.995Z,18.14
2022-07-26T04:08:29.217Z,18.15
2022-07-26T04:10:57.056Z,18.19
2022-07-26T04:13:24.948Z,18.18
2022-07-26T04:15:53.136Z,18.18
2022-07-26T04:18:21.435Z,18.13
2022-07-26T04:20:52.671Z,18.07
2022-07-26T04:23:20.520Z,18.05
2022-07-26T04:25:49.752Z,18.07
2022-07-26T04:28:17.817Z,18.04
2022-07-26T04:30:46.188Z,18.02
2022-07-26T04:33:14.091Z,17.98
2022-07-26T04:35:41.959Z,17.94
2022-07-26T04:38:09.773Z,17.93
2022-07-26T04:40:40.409Z,17.89
2022-07-26T04:43:15.938Z,17.88
2022-07-26T04:45:44.394Z,17.86
2022-07-26T04:48:12.284Z,17.83
2022-07-26T04:50:40.164Z,17.81
2022-07-26T04:53:08.903Z,17.79
2022-07-26T04:55:36.710Z,17.76
2022-07-26T04:58:05.223Z,17.70
2022-07-26T05:00:46.958Z,17.66
2022-07-26T05:03:25.209Z,17.64
2022-07-26T05:05:53.565Z,17.62
2022-07-26T05:08:21.631Z,17.60
2022-07-26T05:10:54.937Z,17.60
2022-07-26T05:13:29.904Z,17.60
2022-07-26T05:16:01.793Z,17.63
2022-07-26T05:18:31.660Z,17.69
2022-07-26T05:20:59.954Z,17.73
2022-07-26T05:23:27.777Z,17.77
2022-07-26T05:25:56.428Z,17.79
2022-07-26T05:28:24.316Z,17.83
2022-07-26T05:30:52.451Z,17.86
2022-07-26T05:33:22.020Z,17.87
2022-07-26T05:35:49.916Z,17.90
2022-07-26T05:38:17.831Z,17.93
2022-07-26T05:40:50.299Z,17.97
2022-07-26T05:43:18.647Z,18.03
2022-07-26T05:45:46.580Z,18.08
2022-07-26T05:48:14.541Z,18.12
2022-07-26T05:50:43.985Z,18.17
2022-07-26T05:53:11.859Z,18.21
2022-07-26T05:55:39.740Z,18.23
2022-07-26T05:58:07.833Z,18.29
2022-07-26T06:00:35.755Z,18.34
2022-07-26T06:03:22.008Z,18.41
2022-07-26T06:05:51.828Z,18.48
2022-07-26T06:08:20.657Z,18.54
2022-07-26T06:10:49.684Z,18.60
2022-07-26T06:13:18.039Z,18.65
2022-07-26T06:15:46.286Z,18.70
2022-07-26T06:18:14.486Z,18.74
2022-07-26T06:20:43.898Z,18.79
2022-07-26T06:23:13.755Z,18.83
2022-07-26T06:25:42.487Z,18.88
2022-07-26T06:28:11.819Z,18.95
2022-07-26T06:30:40.085Z,19.02
2022-07-26T06:33:09.637Z,19.07
2022-07-26T06:35:39.235Z,19.13
2022-07-26T06:38:07.729Z,19.21
2022-07-26T06:40:37.474Z,19.24
2022-07-26T06:43:05.441Z,19.30
2022-07-26T06:45:34.026Z,19.36
2022-07-26T06:48:02.250Z,19.41
2022-07-26T06:50:30.202Z,19.44
2022-07-26T06:52:58.107Z,19.50
2022-07-26T06:55:26.015Z,19.55
2022-07-26T06:57:55.673Z,19.61
2022-07-26T07:00:23.779Z,19.66
2022-07-26T07:02:51.731Z,19.73
2022-07-26T07:05:19.795Z,19.78
2022-07-26T07:07:47.705Z,19.83
2022-07-26T07:10:16.273Z,19.89
2022-07-26T07:12:47.053Z,19.98
2022-07-26T07:15:16.347Z,20.02
2022-07-26T07:17:44.391Z,20.05
2022-07-26T07:20:14.331Z,20.11
2022-07-26T07:22:42.199Z,20.15
2022-07-26T07:25:10.394Z,20.20
2022-07-26T07:27:42.811Z,20.26
2022-07-26T07:30:12.225Z,20.33
2022-07-26T07:32:41.508Z,20.42
2022-07-26T07:35:12.686Z,20.52
2022-07-26T07:37:53.212Z,20.68
2022-07-26T07:40:22.369Z,20.77
2022-07-26T07:42:50.624Z,20.92
2022-07-26T07:45:18.709Z,21.07
2022-07-26T07:47:47.996Z,21.22
2022-07-26T07:50:15.865Z,21.33
2022-07-26T07:52:46.120Z,21.34
2022-07-26T07:55:36.654Z,21.35
2022-07-26T07:58:02.142Z,21.38
2022-07-26T08:00:30.192Z,21.38
2022-07-26T08:02:59.408Z,21.42
2022-07-26T08:05:27.277Z,21.51
2022-07-26T08:07:55.121Z,21.57
2022-07-26T08:10:23.124Z,21.66
2022-07-26T08:12:51.579Z,21.73
2022-07-26T08:15:21.343Z,21.76
2022-07-26T08:17:54.645Z,21.87
2022-07-26T08:20:25.192Z,21.92
2022-07-26T08:22:53.407Z,22.01
2022-07-26T08:25:21.589Z,22.08
2022-07-26T08:28:03.137Z,22.11
2022-07-26T08:30:31.838Z,22.18
2022-07-26T08:33:00.048Z,22.20
2022-07-26T08:35:30.156Z,22.28
2022-07-26T08:37:58.346Z,22.32
2022-07-26T08:40:26.573Z,22.36
2022-07-26T08:42:56.762Z,22.40
2022-07-26T08:45:25.940Z,22.44
2022-07-26T08:48:16.618Z,22.51
2022-07-26T08:50:44.563Z,22.58
2022-07-26T08:53:13.669Z,22.59
2022-07-26T08:58:29.524Z,22.68
2022-07-26T09:01:08.733Z,22.75
2022-07-26T09:03:37.897Z,22.77
2022-07-26T09:06:18.352Z,22.79
2022-07-26T09:08:47.705Z,22.86
2022-07-26T09:11:33.146Z,23.01
2022-07-26T09:14:04.053Z,23.04
2022-07-26T09:16:35.988Z,23.01
2022-07-26T09:19:19.345Z,23.08
2022-07-26T09:21:48.684Z,23.24
2022-07-26T09:24:31.403Z,23.39
2022-07-26T09:27:00.287Z,23.50
2022-07-26T09:29:28.993Z,23.70
2022-07-26T09:32:11.242Z,23.90
2022-07-26T09:34:51.770Z,23.97
2022-07-26T09:37:34.949Z,24.03
2022-07-26T09:40:05.925Z,24.15
2022-07-26T09:42:33.785Z,24.36
2022-07-26T09:45:01.920Z,24.40
2022-07-26T09:47:37.445Z,24.36
2022-07-26T09:50:14.040Z,24.33
2022-07-26T09:52:58.643Z,24.20
2022-07-26T09:55:27.602Z,24.14
2022-07-26T09:57:59.873Z,24.08
2022-07-26T10:00:27.923Z,24.18
2022-07-26T10:05:23.715Z,24.16
2022-07-26T10:07:53.994Z,23.98
2022-07-26T10:10:26.556Z,23.83
2022-07-26T10:12:55.413Z,23.78
2022-07-26T10:15:38.608Z,23.99
2022-07-26T10:18:08.429Z,24.19
2022-07-26T10:20:50.884Z,24.17
2022-07-26T10:23:51.361Z,24.31
2022-07-26T10:26:43.241Z,24.74
2022-07-26T10:29:28.046Z,24.96
2022-07-26T10:32:20.280Z,24.98
2022-07-26T10:34:48.734Z,24.97
2022-07-26T10:37:27.823Z,24.93
2022-07-26T10:40:22.484Z,24.74
2022-07-26T10:42:50.460Z,24.56
2022-07-26T10:45:21.044Z,24.38
2022-07-26T10:48:16.156Z,24.18
2022-07-26T10:50:46.461Z,24.09
2022-07-26T10:53:19.441Z,24.01
2022-07-26T10:55:53.297Z,23.92
2022-07-26T10:58:21.992Z,23.79
2022-07-26T11:00:58.231Z,23.67
2022-07-26T11:03:26.363Z,23.61
2022-07-26T11:05:54.268Z,23.50
2022-07-26T11:08:31.435Z,23.31
2022-07-26T11:11:00.608Z,23.10
2022-07-26T11:13:29.009Z,22.89
2022-07-26T11:16:01.787Z,22.86
2022-07-26T11:18:32.718Z,22.79
2022-07-26T11:21:10.827Z,22.70
2022-07-26T11:23:39.810Z,22.62
2022-07-26T11:26:14.994Z,22.64
2022-07-26T11:29:01.278Z,22.62
2022-07-26T11:31:51.965Z,22.54
2022-07-26T11:34:29.236Z,22.51
2022-07-26T11:36:58.632Z,22.55
2022-07-26T11:39:28.138Z,22.55
2022-07-26T11:42:01.381Z,22.61
2022-07-26T11:44:29.878Z,22.62
2022-07-26T11:46:58.509Z,22.65
2022-07-26T11:50:01.129Z,22.64
2022-07-26T11:52:24.894Z,22.56
2022-07-26T11:59:03.962Z,22.57
2022-07-26T12:01:32.650Z,22.63
2022-07-26T12:04:00.629Z,22.68
2022-07-26T12:06:29.108Z,22.81
2022-07-26T12:08:59.536Z,22.86
2022-07-26T12:11:38.818Z,22.87
2022-07-26T12:14:08.502Z,22.86
2022-07-26T12:16:42.741Z,22.94
2022-07-26T12:19:23.654Z,23.07
2022-07-26T12:21:53.049Z,23.10
2022-07-26T12:24:43.171Z,23.17
2022-07-26T12:27:13.617Z,23.20
2022-07-26T12:29:46.405Z,23.28
2022-07-26T12:32:16.310Z,23.40
2022-07-26T12:34:56.703Z,23.45
2022-07-26T12:37:32.585Z,23.44
2022-07-26T12:40:10.735Z,23.37
2022-07-26T12:42:40.522Z,23.39
2022-07-26T12:45:12.321Z,23.42
2022-07-26T12:47:44.201Z,23.48
2022-07-26T12:50:13.684Z,23.62
2022-07-26T12:52:42.470Z,23.70
2022-07-26T12:55:14.991Z,23.78
2022-07-26T12:57:47.725Z,24.00
2022-07-26T13:00:19.240Z,24.27
2022-07-26T13:02:47.808Z,24.36
2022-07-26T13:05:16.389Z,24.35
2022-07-26T13:07:44.528Z,24.26
2022-07-26T13:13:00.939Z,24.33
2022-07-26T13:15:36.261Z,24.49
2022-07-26T13:18:08.220Z,24.69
2022-07-26T13:20:38.614Z,24.67
2022-07-26T13:23:09.765Z,24.61
2022-07-26T13:25:40.434Z,24.62
2022-07-26T13:28:09.317Z,24.48
2022-07-26T13:30:43.054Z,24.35
2022-07-26T13:33:11.685Z,24.33
2022-07-26T13:35:41.034Z,24.28
2022-07-26T13:38:09.977Z,24.38
2022-07-26T13:40:38.163Z,24.58
2022-07-26T13:43:06.273Z,24.74
2022-07-26T13:45:34.740Z,24.76
2022-07-26T13:48:05.441Z,24.70
2022-07-26T13:50:33.344Z,24.87
2022-07-26T13:53:01.233Z,25.00
2022-07-26T13:55:29.174Z,24.97
2022-07-26T13:57:58.154Z,24.99
2022-07-26T14:00:27.498Z,24.96
2022-07-26T14:02:56.082Z,24.86
2022-07-26T14:05:26.078Z,24.80
2022-07-26T14:07:54.582Z,24.80
2022-07-26T14:10:24.486Z,24.79
2022-07-26T14:12:53.506Z,24.68
2022-07-26T14:15:27.082Z,24.65
2022-07-26T14:17:55.009Z,24.59
2022-07-26T14:20:22.947Z,24.66
2022-07-26T14:22:53.896Z,24.68
2022-07-26T14:25:22.257Z,24.66
2022-07-26T14:27:50.970Z,24.70
2022-07-26T14:30:19.154Z,24.74
2022-07-26T14:32:47.081Z,24.78
2022-07-26T14:35:16.571Z,24.73
2022-07-26T14:37:45.688Z,24.81
2022-07-26T14:40:17.877Z,24.87
2022-07-26T14:42:46.862Z,24.83
2022-07-26T14:45:16.018Z,24.82
2022-07-26T14:47:44.578Z,24.86
2022-07-26T14:50:13.931Z,25.09
2022-07-26T14:52:43.471Z,25.13
2022-07-26T14:55:12.264Z,25.04
2022-07-26T14:57:41.891Z,25.04
2022-07-26T15:00:12.659Z,24.97
2022-07-26T15:02:41.396Z,24.87
2022-07-26T15:05:10.278Z,24.80
2022-07-26T15:07:38.761Z,24.74
2022-07-26T15:10:08.335Z,24.79
2022-07-26T15:12:36.263Z,24.88
2022-07-26T15:15:07.293Z,24.87
2022-07-26T15:17:35.800Z,24.81
2022-07-26T15:20:05.394Z,24.78
2022-07-26T15:22:33.443Z,24.69
2022-07-26T15:25:01.316Z,24.61
2022-07-26T15:27:29.145Z,24.49
2022-07-26T15:30:02.847Z,24.37
2022-07-26T15:32:36.734Z,24.33
2022-07-26T15:35:05.646Z,24.24
2022-07-26T15:37:35.485Z,24.13
2022-07-26T15:40:06.322Z,24.05
2022-07-26T15:42:59.947Z,23.99
2022-07-26T15:45:30.359Z,23.94
2022-07-26T15:48:14.920Z,23.90
2022-07-26T15:50:55.920Z,23.93
2022-07-26T15:53:32.211Z,23.95
2022-07-26T15:56:06.154Z,23.96
2022-07-26T15:58:34.974Z,23.94
2022-07-26T16:01:04.859Z,23.99
2022-07-26T16:03:35.501Z,24.01
2022-07-26T16:06:05.981Z,23.98
2022-07-26T16:08:43.078Z,23.90
2022-07-26T16:11:22.879Z,23.79
2022-07-26T16:13:50.893Z,23.74
2022-07-26T16:16:30.353Z,23.68
2022-07-26T16:18:59.735Z,23.65
2022-07-26T16:21:27.693Z,23.60
2022-07-26T16:23:55.585Z,23.57
2022-07-26T16:26:23.950Z,23.52
2022-07-26T16:28:51.795Z,23.45
2022-07-26T16:31:19.817Z,23.41
2022-07-26T16:33:48.642Z,23.31
2022-07-26T16:36:17.794Z,23.25
2022-07-26T16:38:45.651Z,23.22
2022-07-26T16:41:13.474Z,23.21
2022-07-26T16:43:41.567Z,23.15
2022-07-26T16:46:09.793Z,23.10
2022-07-26T16:48:38.002Z,23.05
2022-07-26T16:51:06.137Z,22.98
2022-07-26T16:53:35.379Z,22.91
2022-07-26T16:56:03.197Z,22.90
2022-07-26T16:58:31.094Z,22.92
2022-07-26T17:00:59.116Z,22.88
2022-07-26T17:03:28.133Z,22.86
2022-07-26T17:05:56.035Z,22.90
2022-07-26T17:08:25.222Z,22.86
2022-07-26T17:10:54.379Z,22.84
2022-07-26T17:13:22.352Z,22.80
2022-07-26T17:15:50.911Z,22.76
2022-07-26T17:18:28.803Z,22.75
2022-07-26T17:21:06.005Z,22.73
2022-07-26T17:23:36.404Z,22.71
2022-07-26T17:26:05.675Z,22.65
2022-07-26T17:28:33.676Z,22.61
2022-07-26T17:31:01.622Z,22.56
2022-07-26T17:33:29.710Z,22.53
2022-07-26T17:35:58.780Z,22.51
2022-07-26T17:38:31.355Z,22.46
2022-07-26T17:40:59.306Z,22.40
2022-07-26T17:43:36.795Z,22.33
2022-07-26T17:46:05.388Z,22.28
2022-07-26T17:48:33.559Z,22.27
2022-07-26T17:51:01.409Z,22.21
2022-07-26T17:53:34.207Z,22.16
2022-07-26T17:56:02.970Z,22.11
2022-07-26T17:58:32.566Z,22.09
2022-07-26T18:01:00.625Z,22.08
2022-07-26T18:03:28.521Z,22.06
2022-07-26T18:05:56.492Z,22.01
2022-07-26T18:08:27.181Z,21.99
2022-07-26T18:10:55.412Z,21.97
2022-07-26T18:13:23.999Z,21.92
2022-07-26T18:15:53.361Z,21.88
2022-07-26T18:18:21.739Z,21.81
2022-07-26T18:20:49.729Z,21.78
2022-07-26T18:23:17.633Z,21.75
2022-07-26T18:25:45.506Z,21.74
2022-07-26T18:28:13.579Z,21.72
2022-07-26T18:30:41.441Z,21.69
2022-07-26T18:33:12.087Z,21.66
2022-07-26T18:35:39.933Z,21.63
2022-07-26T18:38:07.902Z,21.58
2022-07-26T18:40:35.759Z,21.54
2022-07-26T18:43:03.771Z,21.51
2022-07-26T18:45:31.633Z,21.43
2022-07-26T18:47:59.947Z,21.36
2022-07-26T18:50:31.104Z,21.27
2022-07-26T18:53:00.704Z,21.17
2022-07-26T18:55:28.760Z,21.08
2022-07-26T18:57:56.940Z,21.00
2022-07-26T19:00:25.172Z,20.97
2022-07-26T19:02:54.495Z,20.91
2022-07-26T19:05:23.819Z,20.85
2022-07-26T19:07:53.245Z,20.78
2022-07-26T19:10:21.317Z,20.74
2022-07-26T19:12:52.665Z,20.69
2022-07-26T19:15:20.534Z,20.66
2022-07-26T19:17:48.565Z,20.60
2022-07-26T19:20:16.418Z,20.58
2022-07-26T19:22:47.146Z,20.52
2022-07-26T19:25:16.405Z,20.49
2022-07-26T19:27:44.787Z,20.46
2022-07-26T19:30:13.378Z,20.44
2022-07-26T19:32:41.650Z,20.40
2022-07-26T19:35:10.592Z,20.37
2022-07-26T19:37:38.462Z,20.32
2022-07-26T19:40:07.764Z,20.29
2022-07-26T19:42:37.097Z,20.25
2022-07-26T19:45:05.421Z,20.20
2022-07-26T19:47:35.657Z,20.16
2022-07-26T19:50:03.671Z,20.10
2022-07-26T19:52:31.637Z,20.04
2022-07-26T19:54:59.553Z,19.97
2022-07-26T19:57:27.432Z,19.91
2022-07-26T19:59:56.908Z,19.84
2022-07-26T20:02:25.006Z,19.80
2022-07-26T20:04:52.984Z,19.75
2022-07-26T20:07:20.918Z,19.70
2022-07-26T20:09:49.209Z,19.67
2022-07-26T20:12:17.262Z,19.62
2022-07-26T20:14:45.506Z,19.59
2022-07-26T20:17:15.026Z,19.56
2022-07-26T20:19:43.096Z,19.54
2022-07-26T20:22:11.373Z,19.50
2022-07-26T20:24:39.395Z,19.44
2022-07-26T20:27:07.705Z,19.42
2022-07-26T20:29:35.786Z,19.37
2022-07-26T20:32:04.055Z,19.33
2022-07-26T20:34:33.320Z,19.27
2022-07-26T20:37:01.208Z,19.25
2022-07-26T20:39:29.638Z,19.21
2022-07-26T20:41:58.255Z,19.16
2022-07-26T20:44:28.549Z,19.14
2022-07-26T20:46:56.915Z,19.10
2022-07-26T20:49:24.873Z,19.06
2022-07-26T20:51:54.374Z,19.01
2022-07-26T20:54:22.384Z,18.94
2022-07-26T20:56:50.671Z,18.90
2022-07-26T20:59:18.514Z,18.84
2022-07-26T21:01:46.655Z,18.77
2022-07-26T21:04:14.594Z,18.74
2022-07-26T21:06:42.960Z,18.69
2022-07-26T21:09:12.634Z,18.64
2022-07-26T21:11:40.897Z,18.60
2022-07-26T21:14:08.759Z,18.56
2022-07-26T21:16:37.044Z,18.51
2022-07-26T21:19:05.628Z,18.47
2022-07-26T21:21:34.758Z,18.43
2022-07-26T21:24:02.760Z,18.40
2022-07-26T21:26:31.956Z,18.36
2022-07-26T21:28:59.912Z,18.29
2022-07-26T21:31:27.836Z,18.23
2022-07-26T21:33:55.696Z,18.20
2022-07-26T21:36:23.601Z,18.13
2022-07-26T21:38:51.425Z,18.08
2022-07-26T21:41:19.317Z,18.05
2022-07-26T21:43:48.683Z,17.99
2022-07-26T21:46:16.705Z,17.92
2022-07-26T21:48:44.682Z,17.89
2022-07-26T21:51:12.604Z,17.84
2022-07-26T21:53:40.412Z,17.77
2022-07-26T21:56:08.295Z,17.76
2022-07-26T21:58:37.051Z,17.70
2022-07-26T22:01:07.376Z,17.66
2022-07-26T22:03:37.023Z,17.61
2022-07-26T22:06:06.405Z,17.56
2022-07-26T22:08:34.933Z,17.51
2022-07-26T22:11:02.910Z,17.48
2022-07-26T22:13:30.798Z,17.41
2022-07-26T22:15:58.759Z,17.35
2022-07-26T22:18:28.093Z,17.29
2022-07-26T22:20:56.566Z,17.26
2022-07-26T22:23:30.014Z,17.23
2022-07-26T22:25:59.225Z,17.17
2022-07-26T22:28:27.199Z,17.14
2022-07-26T22:30:55.679Z,17.12
2022-07-26T22:33:24.070Z,17.10
2022-07-26T22:35:53.913Z,17.09
2022-07-26T22:38:21.924Z,17.08
2022-07-26T22:40:50.047Z,17.07
2022-07-26T22:43:18.918Z,17.05
2022-07-26T22:45:46.832Z,17.02
2022-07-26T22:48:14.823Z,17.02
2022-07-26T22:50:42.727Z,17.00
2022-07-26T22:53:12.137Z,16.98
2022-07-26T22:55:40.121Z,16.97
2022-07-26T22:58:07.943Z,16.95
2022-07-26T23:00:35.898Z,16.92
2022-07-26T23:03:04.372Z,16.89
2022-07-26T23:05:45.803Z,16.85
2022-07-26T23:08:45.956Z,16.81
2022-07-26T23:11:05.256Z,16.79
2022-07-26T23:13:33.580Z,16.74
2022-07-26T23:16:01.988Z,16.73
2022-07-26T23:18:31.432Z,16.70
2022-07-26T23:20:59.339Z,16.68
2022-07-26T23:23:29.893Z,16.67
2022-07-26T23:25:59.112Z,16.62
2022-07-26T23:28:37.394Z,16.61
2022-07-26T23:31:10.826Z,16.60
2022-07-26T23:33:50.714Z,16.56
2022-07-26T23:36:21.623Z,16.54
2022-07-26T23:38:50.889Z,16.50
2022-07-26T23:41:19.029Z,16.45
2022-07-26T23:43:46.895Z,16.42
2022-07-26T23:46:14.834Z,16.38
2022-07-26T23:48:42.829Z,16.35
2022-07-26T23:51:10.729Z,16.30
2022-07-26T23:53:38.651Z,16.23
2022-07-26T23:56:08.058Z,16.19
2022-07-26T23:58:35.920Z,16.16
